< < Back
Terminal Aerodrome Forecast


Current Version              Previous Versions:   1  2  3  4  5  6  7  8  9  

Terminal Aerodrome Forecast

894
FTUS42 KCHS 311738
TAFCHS
TAF
KCHS 311738Z 3118/0118 06006KT P6SM FEW250
     FM312100 VRB03KT P6SM SCT250
     FM011600 16008KT P6SM FEW050 BKN200=



Latest METAR

676
SAUS80 KWBC 011300 RRK
MTRCHS
METAR KCHS 011256Z 00000KT 10SM FEW120 SCT180 BKN210 05/02 A3031 RMK AO2
SLP264 T00500022 $


USA.gov is the U.S. government's official web portal to all federal, state and local government web resources and services.